sensor_id;sensor_type;location;lat;lon;timestamp;P1;durP1;ratioP1;P2;durP2;ratioP2
37409;SDS011;23275;48.914;12.566;2023-04-24T00:01:38;5.13;;;1.70;;
37409;SDS011;23275;48.914;12.566;2023-04-24T00:04:05;3.80;;;2.08;;
37409;SDS011;23275;48.914;12.566;2023-04-24T00:06:32;9.40;;;2.78;;
37409;SDS011;23275;48.914;12.566;2023-04-24T00:08:59;4.10;;;2.42;;
37409;SDS011;23275;48.914;12.566;2023-04-24T00:11:25;5.00;;;1.90;;
37409;SDS011;23275;48.914;12.566;2023-04-24T00:13:51;5.40;;;2.15;;
37409;SDS011;23275;48.914;12.566;2023-04-24T00:16:17;4.05;;;2.28;;
37409;SDS011;23275;48.914;12.566;2023-04-24T00:18:42;4.35;;;1.98;;
37409;SDS011;23275;48.914;12.566;2023-04-24T00:21:09;3.35;;;1.83;;
37409;SDS011;23275;48.914;12.566;2023-04-24T00:23:35;4.50;;;2.08;;
37409;SDS011;23275;48.914;12.566;2023-04-24T00:26:01;4.75;;;1.73;;
37409;SDS011;23275;48.914;12.566;2023-04-24T00:28:27;5.30;;;1.60;;
37409;SDS011;23275;48.914;12.566;2023-04-24T00:30:52;4.45;;;1.77;;
37409;SDS011;23275;48.914;12.566;2023-04-24T00:33:18;3.22;;;1.85;;
37409;SDS011;23275;48.914;12.566;2023-04-24T00:35:44;3.20;;;1.67;;
37409;SDS011;23275;48.914;12.566;2023-04-24T00:38:10;3.92;;;1.55;;
37409;SDS011;23275;48.914;12.566;2023-04-24T00:40:35;3.75;;;1.92;;
37409;SDS011;23275;48.914;12.566;2023-04-24T00:43:01;3.22;;;1.52;;
37409;SDS011;23275;48.914;12.566;2023-04-24T00:45:26;4.97;;;1.50;;
37409;SDS011;23275;48.914;12.566;2023-04-24T00:47:52;7.40;;;1.88;;
37409;SDS011;23275;48.914;12.566;2023-04-24T00:50:18;5.72;;;1.85;;
37409;SDS011;23275;48.914;12.566;2023-04-24T00:52:46;4.72;;;1.45;;
37409;SDS011;23275;48.914;12.566;2023-04-24T00:55:12;2.97;;;1.45;;
37409;SDS011;23275;48.914;12.566;2023-04-24T00:57:37;3.85;;;1.48;;
37409;SDS011;23275;48.914;12.566;2023-04-24T01:00:04;3.35;;;1.73;;
37409;SDS011;23275;48.914;12.566;2023-04-24T01:02:30;5.82;;;1.75;;
37409;SDS011;23275;48.914;12.566;2023-04-24T01:04:59;2.95;;;1.30;;
37409;SDS011;23275;48.914;12.566;2023-04-24T01:07:26;3.55;;;1.40;;
37409;SDS011;23275;48.914;12.566;2023-04-24T01:09:52;3.10;;;1.60;;
37409;SDS011;23275;48.914;12.566;2023-04-24T01:12:18;4.88;;;1.92;;
37409;SDS011;23275;48.914;12.566;2023-04-24T01:14:44;2.90;;;1.27;;
37409;SDS011;23275;48.914;12.566;2023-04-24T01:17:10;2.70;;;1.30;;
37409;SDS011;23275;48.914;12.566;2023-04-24T01:19:36;5.68;;;1.90;;
37409;SDS011;23275;48.914;12.566;2023-04-24T01:22:02;2.67;;;1.38;;
37409;SDS011;23275;48.914;12.566;2023-04-24T01:24:33;2.40;;;1.05;;
37409;SDS011;23275;48.914;12.566;2023-04-24T01:26:59;3.75;;;1.67;;
37409;SDS011;23275;48.914;12.566;2023-04-24T01:29:26;2.63;;;1.27;;
37409;SDS011;23275;48.914;12.566;2023-04-24T01:31:51;3.78;;;1.70;;
37409;SDS011;23275;48.914;12.566;2023-04-24T01:34:17;3.05;;;1.38;;
37409;SDS011;23275;48.914;12.566;2023-04-24T01:36:43;3.00;;;1.33;;
37409;SDS011;23275;48.914;12.566;2023-04-24T01:39:11;4.00;;;1.30;;
37409;SDS011;23275;48.914;12.566;2023-04-24T01:41:37;2.65;;;1.25;;
37409;SDS011;23275;48.914;12.566;2023-04-24T01:44:02;3.70;;;1.50;;
37409;SDS011;23275;48.914;12.566;2023-04-24T01:46:28;2.80;;;1.48;;
37409;SDS011;23275;48.914;12.566;2023-04-24T01:48:55;3.92;;;2.00;;
37409;SDS011;23275;48.914;12.566;2023-04-24T01:51:21;3.33;;;1.42;;
37409;SDS011;23275;48.914;12.566;2023-04-24T01:53:46;2.63;;;1.38;;
37409;SDS011;23275;48.914;12.566;2023-04-24T01:56:12;3.35;;;1.50;;
37409;SDS011;23275;48.914;12.566;2023-04-24T01:58:39;2.90;;;1.48;;
37409;SDS011;23275;48.914;12.566;2023-04-24T02:01:06;3.05;;;1.50;;
37409;SDS011;23275;48.914;12.566;2023-04-24T02:03:31;4.38;;;1.52;;
37409;SDS011;23275;48.914;12.566;2023-04-24T02:05:57;3.63;;;1.60;;
37409;SDS011;23275;48.914;12.566;2023-04-24T02:08:22;2.55;;;1.50;;
37409;SDS011;23275;48.914;12.566;2023-04-24T02:10:48;3.85;;;2.05;;
37409;SDS011;23275;48.914;12.566;2023-04-24T02:13:14;3.17;;;1.40;;
37409;SDS011;23275;48.914;12.566;2023-04-24T02:15:40;2.53;;;1.73;;
37409;SDS011;23275;48.914;12.566;2023-04-24T02:18:05;3.33;;;1.50;;
37409;SDS011;23275;48.914;12.566;2023-04-24T02:20:32;3.92;;;1.58;;
37409;SDS011;23275;48.914;12.566;2023-04-24T02:22:59;3.75;;;1.67;;
37409;SDS011;23275;48.914;12.566;2023-04-24T02:25:25;3.15;;;1.35;;
37409;SDS011;23275;48.914;12.566;2023-04-24T02:27:50;2.78;;;1.85;;
37409;SDS011;23275;48.914;12.566;2023-04-24T02:30:16;3.72;;;1.77;;
37409;SDS011;23275;48.914;12.566;2023-04-24T02:32:41;4.35;;;2.22;;
37409;SDS011;23275;48.914;12.566;2023-04-24T02:35:07;5.78;;;2.05;;
37409;SDS011;23275;48.914;12.566;2023-04-24T02:37:33;3.33;;;2.10;;
37409;SDS011;23275;48.914;12.566;2023-04-24T02:39:58;6.22;;;2.03;;
37409;SDS011;23275;48.914;12.566;2023-04-24T02:42:24;4.72;;;2.22;;
37409;SDS011;23275;48.914;12.566;2023-04-24T02:44:49;5.15;;;2.08;;
37409;SDS011;23275;48.914;12.566;2023-04-24T02:47:16;5.07;;;2.30;;
37409;SDS011;23275;48.914;12.566;2023-04-24T02:49:41;5.40;;;2.40;;
37409;SDS011;23275;48.914;12.566;2023-04-24T02:52:07;4.82;;;2.15;;
37409;SDS011;23275;48.914;12.566;2023-04-24T02:54:32;3.85;;;2.30;;
37409;SDS011;23275;48.914;12.566;2023-04-24T02:56:58;3.97;;;2.30;;
37409;SDS011;23275;48.914;12.566;2023-04-24T02:59:23;4.22;;;2.50;;
37409;SDS011;23275;48.914;12.566;2023-04-24T03:01:49;5.38;;;2.47;;
37409;SDS011;23275;48.914;12.566;2023-04-24T03:04:15;5.70;;;2.53;;
37409;SDS011;23275;48.914;12.566;2023-04-24T03:06:41;7.00;;;2.30;;
37409;SDS011;23275;48.914;12.566;2023-04-24T03:09:06;6.25;;;3.03;;
37409;SDS011;23275;48.914;12.566;2023-04-24T03:11:32;5.88;;;3.13;;
37409;SDS011;23275;48.914;12.566;2023-04-24T03:13:58;5.57;;;2.50;;
37409;SDS011;23275;48.914;12.566;2023-04-24T03:16:23;4.65;;;2.50;;
37409;SDS011;23275;48.914;12.566;2023-04-24T03:18:49;4.15;;;2.75;;
37409;SDS011;23275;48.914;12.566;2023-04-24T03:21:15;6.03;;;2.85;;
37409;SDS011;23275;48.914;12.566;2023-04-24T03:23:41;6.25;;;2.50;;
37409;SDS011;23275;48.914;12.566;2023-04-24T03:26:06;3.72;;;2.33;;
37409;SDS011;23275;48.914;12.566;2023-04-24T03:28:32;3.20;;;2.38;;
37409;SDS011;23275;48.914;12.566;2023-04-24T03:30:57;5.50;;;2.72;;
37409;SDS011;23275;48.914;12.566;2023-04-24T03:33:23;3.80;;;2.30;;
37409;SDS011;23275;48.914;12.566;2023-04-24T03:35:49;4.15;;;2.95;;
37409;SDS011;23275;48.914;12.566;2023-04-24T03:38:14;6.95;;;2.60;;
37409;SDS011;23275;48.914;12.566;2023-04-24T03:40:40;5.22;;;2.90;;
37409;SDS011;23275;48.914;12.566;2023-04-24T03:43:05;4.93;;;2.28;;
37409;SDS011;23275;48.914;12.566;2023-04-24T03:45:31;6.28;;;2.95;;
37409;SDS011;23275;48.914;12.566;2023-04-24T03:47:56;4.50;;;2.58;;
37409;SDS011;23275;48.914;12.566;2023-04-24T03:50:22;6.00;;;2.90;;
37409;SDS011;23275;48.914;12.566;2023-04-24T03:52:48;4.40;;;2.47;;
37409;SDS011;23275;48.914;12.566;2023-04-24T03:55:13;4.28;;;2.80;;
37409;SDS011;23275;48.914;12.566;2023-04-24T03:57:42;4.20;;;2.90;;
37409;SDS011;23275;48.914;12.566;2023-04-24T04:00:08;5.95;;;2.65;;
37409;SDS011;23275;48.914;12.566;2023-04-24T04:02:34;5.35;;;2.60;;
37409;SDS011;23275;48.914;12.566;2023-04-24T04:05:00;7.68;;;2.47;;
37409;SDS011;23275;48.914;12.566;2023-04-24T04:07:25;4.13;;;2.30;;
37409;SDS011;23275;48.914;12.566;2023-04-24T04:09:51;4.30;;;2.20;;
37409;SDS011;23275;48.914;12.566;2023-04-24T04:12:16;3.40;;;2.42;;
37409;SDS011;23275;48.914;12.566;2023-04-24T04:14:42;4.22;;;2.20;;
37409;SDS011;23275;48.914;12.566;2023-04-24T04:17:07;3.58;;;2.42;;
37409;SDS011;23275;48.914;12.566;2023-04-24T04:19:33;3.70;;;2.10;;
37409;SDS011;23275;48.914;12.566;2023-04-24T04:21:58;5.28;;;3.10;;
37409;SDS011;23275;48.914;12.566;2023-04-24T04:24:24;4.40;;;2.60;;
37409;SDS011;23275;48.914;12.566;2023-04-24T04:26:51;4.40;;;2.30;;
37409;SDS011;23275;48.914;12.566;2023-04-24T04:29:21;5.35;;;3.00;;
37409;SDS011;23275;48.914;12.566;2023-04-24T04:31:47;4.65;;;2.58;;
37409;SDS011;23275;48.914;12.566;2023-04-24T04:34:13;5.18;;;2.60;;
37409;SDS011;23275;48.914;12.566;2023-04-24T04:36:39;3.35;;;2.03;;
37409;SDS011;23275;48.914;12.566;2023-04-24T04:39:05;5.05;;;2.17;;
37409;SDS011;23275;48.914;12.566;2023-04-24T04:41:31;3.97;;;2.30;;
37409;SDS011;23275;48.914;12.566;2023-04-24T04:44:00;3.65;;;2.03;;
37409;SDS011;23275;48.914;12.566;2023-04-24T04:46:26;4.38;;;1.90;;
37409;SDS011;23275;48.914;12.566;2023-04-24T04:48:52;3.83;;;2.13;;
37409;SDS011;23275;48.914;12.566;2023-04-24T04:51:18;3.47;;;1.70;;
37409;SDS011;23275;48.914;12.566;2023-04-24T04:53:43;3.00;;;1.90;;
37409;SDS011;23275;48.914;12.566;2023-04-24T04:56:09;3.33;;;1.92;;
37409;SDS011;23275;48.914;12.566;2023-04-24T04:58:35;4.47;;;2.05;;
37409;SDS011;23275;48.914;12.566;2023-04-24T05:01:01;4.82;;;1.83;;
37409;SDS011;23275;48.914;12.566;2023-04-24T05:03:27;2.92;;;1.40;;
37409;SDS011;23275;48.914;12.566;2023-04-24T05:05:52;2.58;;;1.52;;
37409;SDS011;23275;48.914;12.566;2023-04-24T05:08:18;4.32;;;1.33;;
37409;SDS011;23275;48.914;12.566;2023-04-24T05:10:43;2.10;;;1.17;;
37409;SDS011;23275;48.914;12.566;2023-04-24T05:13:09;2.30;;;1.23;;
37409;SDS011;23275;48.914;12.566;2023-04-24T05:15:35;3.25;;;1.25;;
37409;SDS011;23275;48.914;12.566;2023-04-24T05:18:00;3.05;;;1.13;;
37409;SDS011;23275;48.914;12.566;2023-04-24T05:20:26;4.78;;;1.20;;
37409;SDS011;23275;48.914;12.566;2023-04-24T05:22:51;2.22;;;1.10;;
37409;SDS011;23275;48.914;12.566;2023-04-24T05:25:17;5.57;;;1.33;;
37409;SDS011;23275;48.914;12.566;2023-04-24T05:27:42;2.17;;;1.10;;
37409;SDS011;23275;48.914;12.566;2023-04-24T05:30:09;2.10;;;1.17;;
37409;SDS011;23275;48.914;12.566;2023-04-24T05:32:34;4.53;;;2.00;;
37409;SDS011;23275;48.914;12.566;2023-04-24T05:35:00;2.25;;;1.00;;
37409;SDS011;23275;48.914;12.566;2023-04-24T05:37:26;4.68;;;1.27;;
37409;SDS011;23275;48.914;12.566;2023-04-24T05:39:51;2.08;;;1.10;;
37409;SDS011;23275;48.914;12.566;2023-04-24T05:42:17;3.20;;;1.48;;
37409;SDS011;23275;48.914;12.566;2023-04-24T05:44:43;2.30;;;0.88;;
37409;SDS011;23275;48.914;12.566;2023-04-24T05:47:08;3.03;;;0.95;;
37409;SDS011;23275;48.914;12.566;2023-04-24T05:49:34;3.65;;;1.23;;
37409;SDS011;23275;48.914;12.566;2023-04-24T05:51:59;1.77;;;1.08;;
37409;SDS011;23275;48.914;12.566;2023-04-24T05:54:25;2.17;;;1.00;;
37409;SDS011;23275;48.914;12.566;2023-04-24T05:56:50;1.95;;;0.95;;
37409;SDS011;23275;48.914;12.566;2023-04-24T05:59:16;2.45;;;1.02;;
37409;SDS011;23275;48.914;12.566;2023-04-24T06:01:41;4.45;;;1.30;;
37409;SDS011;23275;48.914;12.566;2023-04-24T06:04:07;2.28;;;1.15;;
37409;SDS011;23275;48.914;12.566;2023-04-24T06:06:33;2.63;;;1.30;;
37409;SDS011;23275;48.914;12.566;2023-04-24T06:08:59;1.90;;;1.10;;
37409;SDS011;23275;48.914;12.566;2023-04-24T06:11:25;2.28;;;1.20;;
37409;SDS011;23275;48.914;12.566;2023-04-24T06:13:50;2.70;;;0.90;;
37409;SDS011;23275;48.914;12.566;2023-04-24T06:16:17;2.42;;;0.98;;
37409;SDS011;23275;48.914;12.566;2023-04-24T06:18:42;5.70;;;1.08;;
37409;SDS011;23275;48.914;12.566;2023-04-24T06:21:08;2.47;;;0.90;;
37409;SDS011;23275;48.914;12.566;2023-04-24T06:23:33;3.75;;;1.05;;
37409;SDS011;23275;48.914;12.566;2023-04-24T06:25:59;3.42;;;0.85;;
37409;SDS011;23275;48.914;12.566;2023-04-24T06:28:24;1.48;;;0.90;;
37409;SDS011;23275;48.914;12.566;2023-04-24T06:30:51;2.72;;;1.00;;
37409;SDS011;23275;48.914;12.566;2023-04-24T06:33:16;2.90;;;0.90;;
37409;SDS011;23275;48.914;12.566;2023-04-24T06:35:42;2.50;;;0.73;;
37409;SDS011;23275;48.914;12.566;2023-04-24T06:38:08;1.30;;;0.77;;
37409;SDS011;23275;48.914;12.566;2023-04-24T06:40:33;1.80;;;0.80;;
37409;SDS011;23275;48.914;12.566;2023-04-24T06:42:59;2.10;;;0.65;;
37409;SDS011;23275;48.914;12.566;2023-04-24T06:45:27;1.73;;;0.60;;
37409;SDS011;23275;48.914;12.566;2023-04-24T06:47:53;2.78;;;0.65;;
37409;SDS011;23275;48.914;12.566;2023-04-24T06:50:19;3.60;;;0.70;;
37409;SDS011;23275;48.914;12.566;2023-04-24T06:52:44;1.60;;;0.60;;
37409;SDS011;23275;48.914;12.566;2023-04-24T06:55:10;2.17;;;0.70;;
37409;SDS011;23275;48.914;12.566;2023-04-24T06:57:36;2.55;;;0.60;;
37409;SDS011;23275;48.914;12.566;2023-04-24T07:00:02;1.55;;;0.60;;
37409;SDS011;23275;48.914;12.566;2023-04-24T07:02:30;1.67;;;0.82;;
37409;SDS011;23275;48.914;12.566;2023-04-24T07:04:55;1.52;;;0.68;;
37409;SDS011;23275;48.914;12.566;2023-04-24T07:07:21;2.30;;;0.80;;
37409;SDS011;23275;48.914;12.566;2023-04-24T07:09:48;1.80;;;0.80;;
37409;SDS011;23275;48.914;12.566;2023-04-24T07:12:15;1.27;;;0.60;;
37409;SDS011;23275;48.914;12.566;2023-04-24T07:14:41;1.60;;;0.90;;
37409;SDS011;23275;48.914;12.566;2023-04-24T07:17:07;3.03;;;0.90;;
37409;SDS011;23275;48.914;12.566;2023-04-24T07:19:33;2.10;;;0.80;;
37409;SDS011;23275;48.914;12.566;2023-04-24T07:22:00;2.45;;;0.70;;
37409;SDS011;23275;48.914;12.566;2023-04-24T07:24:26;1.65;;;0.68;;
37409;SDS011;23275;48.914;12.566;2023-04-24T07:26:52;4.10;;;0.82;;
37409;SDS011;23275;48.914;12.566;2023-04-24T07:29:19;2.17;;;0.90;;
37409;SDS011;23275;48.914;12.566;2023-04-24T07:31:44;2.20;;;0.80;;
37409;SDS011;23275;48.914;12.566;2023-04-24T07:34:10;1.77;;;0.60;;
37409;SDS011;23275;48.914;12.566;2023-04-24T07:36:36;4.35;;;0.90;;
37409;SDS011;23275;48.914;12.566;2023-04-24T07:39:03;4.85;;;0.90;;
37409;SDS011;23275;48.914;12.566;2023-04-24T07:41:29;2.25;;;0.65;;
37409;SDS011;23275;48.914;12.566;2023-04-24T07:43:55;3.53;;;0.80;;
37409;SDS011;23275;48.914;12.566;2023-04-24T07:46:21;3.35;;;0.95;;
37409;SDS011;23275;48.914;12.566;2023-04-24T07:48:46;1.35;;;0.70;;
37409;SDS011;23275;48.914;12.566;2023-04-24T07:51:13;1.90;;;0.90;;
37409;SDS011;23275;48.914;12.566;2023-04-24T07:53:39;1.40;;;0.77;;
37409;SDS011;23275;48.914;12.566;2023-04-24T07:56:05;3.78;;;0.80;;
37409;SDS011;23275;48.914;12.566;2023-04-24T07:58:31;1.45;;;0.80;;
37409;SDS011;23275;48.914;12.566;2023-04-24T08:00:57;3.53;;;0.85;;
37409;SDS011;23275;48.914;12.566;2023-04-24T08:03:22;1.65;;;1.00;;
37409;SDS011;23275;48.914;12.566;2023-04-24T08:05:49;2.97;;;1.27;;
37409;SDS011;23275;48.914;12.566;2023-04-24T08:08:15;2.17;;;1.08;;
37409;SDS011;23275;48.914;12.566;2023-04-24T08:10:41;2.40;;;1.10;;
37409;SDS011;23275;48.914;12.566;2023-04-24T08:13:07;3.15;;;1.60;;
37409;SDS011;23275;48.914;12.566;2023-04-24T08:15:33;5.43;;;1.25;;
37409;SDS011;23275;48.914;12.566;2023-04-24T08:17:58;3.40;;;1.40;;
37409;SDS011;23275;48.914;12.566;2023-04-24T08:20:24;4.63;;;1.60;;
37409;SDS011;23275;48.914;12.566;2023-04-24T08:22:49;2.75;;;1.33;;
37409;SDS011;23275;48.914;12.566;2023-04-24T08:25:15;4.78;;;1.80;;
37409;SDS011;23275;48.914;12.566;2023-04-24T08:27:40;2.88;;;1.60;;
37409;SDS011;23275;48.914;12.566;2023-04-24T08:30:06;2.00;;;1.30;;
37409;SDS011;23275;48.914;12.566;2023-04-24T08:32:32;2.85;;;1.73;;
37409;SDS011;23275;48.914;12.566;2023-04-24T08:34:58;2.72;;;1.60;;
37409;SDS011;23275;48.914;12.566;2023-04-24T08:37:25;2.50;;;1.52;;
37409;SDS011;23275;48.914;12.566;2023-04-24T08:39:51;2.83;;;1.50;;
37409;SDS011;23275;48.914;12.566;2023-04-24T08:42:18;2.45;;;1.40;;
37409;SDS011;23275;48.914;12.566;2023-04-24T08:44:44;3.00;;;1.70;;
37409;SDS011;23275;48.914;12.566;2023-04-24T08:47:11;2.38;;;1.73;;
37409;SDS011;23275;48.914;12.566;2023-04-24T08:49:37;3.97;;;1.73;;
37409;SDS011;23275;48.914;12.566;2023-04-24T08:52:04;3.08;;;1.42;;
37409;SDS011;23275;48.914;12.566;2023-04-24T08:54:30;5.13;;;1.33;;
37409;SDS011;23275;48.914;12.566;2023-04-24T08:56:59;2.50;;;1.58;;
37409;SDS011;23275;48.914;12.566;2023-04-24T08:59:29;2.60;;;1.50;;
37409;SDS011;23275;48.914;12.566;2023-04-24T09:01:58;2.38;;;1.45;;
37409;SDS011;23275;48.914;12.566;2023-04-24T09:04:24;2.13;;;0.90;;
37409;SDS011;23275;48.914;12.566;2023-04-24T09:06:55;1.88;;;0.93;;
37409;SDS011;23275;48.914;12.566;2023-04-24T09:09:22;2.05;;;1.02;;
37409;SDS011;23275;48.914;12.566;2023-04-24T09:11:49;1.50;;;0.90;;
37409;SDS011;23275;48.914;12.566;2023-04-24T09:14:16;5.00;;;1.10;;
37409;SDS011;23275;48.914;12.566;2023-04-24T09:16:43;2.20;;;1.05;;
37409;SDS011;23275;48.914;12.566;2023-04-24T09:19:08;3.40;;;1.08;;
37409;SDS011;23275;48.914;12.566;2023-04-24T09:21:34;2.47;;;1.00;;
37409;SDS011;23275;48.914;12.566;2023-04-24T09:24:02;1.95;;;0.85;;
37409;SDS011;23275;48.914;12.566;2023-04-24T09:26:34;3.40;;;0.73;;
37409;SDS011;23275;48.914;12.566;2023-04-24T09:29:00;1.52;;;0.50;;
37409;SDS011;23275;48.914;12.566;2023-04-24T09:31:27;1.55;;;0.50;;
37409;SDS011;23275;48.914;12.566;2023-04-24T09:33:58;1.17;;;0.50;;
37409;SDS011;23275;48.914;12.566;2023-04-24T09:36:30;0.93;;;0.50;;
37409;SDS011;23275;48.914;12.566;2023-04-24T09:39:01;1.30;;;0.60;;
37409;SDS011;23275;48.914;12.566;2023-04-24T09:41:27;1.03;;;0.60;;
37409;SDS011;23275;48.914;12.566;2023-04-24T09:43:56;2.20;;;0.60;;
37409;SDS011;23275;48.914;12.566;2023-04-24T09:46:30;1.35;;;0.63;;
37409;SDS011;23275;48.914;12.566;2023-04-24T09:49:03;3.65;;;0.70;;
37409;SDS011;23275;48.914;12.566;2023-04-24T09:51:34;1.02;;;0.73;;
37409;SDS011;23275;48.914;12.566;2023-04-24T09:54:04;2.67;;;0.80;;
37409;SDS011;23275;48.914;12.566;2023-04-24T09:56:37;1.33;;;0.70;;
37409;SDS011;23275;48.914;12.566;2023-04-24T09:59:08;1.48;;;0.70;;
37409;SDS011;23275;48.914;12.566;2023-04-24T10:01:34;0.88;;;0.47;;
37409;SDS011;23275;48.914;12.566;2023-04-24T10:03:59;1.55;;;0.80;;
37409;SDS011;23275;48.914;12.566;2023-04-24T10:06:35;0.95;;;0.45;;
37409;SDS011;23275;48.914;12.566;2023-04-24T10:09:01;1.33;;;0.55;;
37409;SDS011;23275;48.914;12.566;2023-04-24T10:11:28;1.55;;;0.57;;
37409;SDS011;23275;48.914;12.566;2023-04-24T10:13:55;3.72;;;0.60;;
37409;SDS011;23275;48.914;12.566;2023-04-24T10:16:22;2.40;;;0.60;;
37409;SDS011;23275;48.914;12.566;2023-04-24T10:18:48;4.25;;;0.45;;
37409;SDS011;23275;48.914;12.566;2023-04-24T10:21:14;1.17;;;0.55;;
37409;SDS011;23275;48.914;12.566;2023-04-24T10:23:41;0.98;;;0.50;;
37409;SDS011;23275;48.914;12.566;2023-04-24T10:26:12;1.48;;;0.50;;
37409;SDS011;23275;48.914;12.566;2023-04-24T10:28:44;1.42;;;0.50;;
37409;SDS011;23275;48.914;12.566;2023-04-24T10:31:10;1.23;;;0.60;;
37409;SDS011;23275;48.914;12.566;2023-04-24T10:33:38;1.83;;;0.40;;
37409;SDS011;23275;48.914;12.566;2023-04-24T10:36:06;1.70;;;0.50;;
37409;SDS011;23275;48.914;12.566;2023-04-24T10:38:34;1.70;;;0.50;;
37409;SDS011;23275;48.914;12.566;2023-04-24T10:41:08;3.05;;;0.40;;
37409;SDS011;23275;48.914;12.566;2023-04-24T10:43:35;2.42;;;0.50;;
37409;SDS011;23275;48.914;12.566;2023-04-24T10:46:01;2.20;;;0.50;;
37409;SDS011;23275;48.914;12.566;2023-04-24T10:48:28;2.08;;;0.50;;
37409;SDS011;23275;48.914;12.566;2023-04-24T10:50:54;1.23;;;0.40;;
37409;SDS011;23275;48.914;12.566;2023-04-24T10:53:20;2.08;;;0.50;;
37409;SDS011;23275;48.914;12.566;2023-04-24T11:01:22;1.75;;;0.60;;
37409;SDS011;23275;48.914;12.566;2023-04-24T11:03:54;1.55;;;0.60;;
37409;SDS011;23275;48.914;12.566;2023-04-24T11:09:09;0.85;;;0.32;;
37409;SDS011;23275;48.914;12.566;2023-04-24T11:11:37;0.75;;;0.40;;
37409;SDS011;23275;48.914;12.566;2023-04-24T11:14:09;0.90;;;0.40;;
37409;SDS011;23275;48.914;12.566;2023-04-24T11:16:42;1.85;;;0.50;;
37409;SDS011;23275;48.914;12.566;2023-04-24T11:24:32;1.27;;;0.30;;
37409;SDS011;23275;48.914;12.566;2023-04-24T11:29:42;1.05;;;0.40;;
37409;SDS011;23275;48.914;12.566;2023-04-24T11:35:01;1.40;;;0.50;;
37409;SDS011;23275;48.914;12.566;2023-04-24T11:37:51;1.80;;;0.60;;
37409;SDS011;23275;48.914;12.566;2023-04-24T11:40:18;1.40;;;0.57;;
37409;SDS011;23275;48.914;12.566;2023-04-24T11:42:46;1.40;;;0.55;;
37409;SDS011;23275;48.914;12.566;2023-04-24T11:45:16;1.30;;;0.40;;
37409;SDS011;23275;48.914;12.566;2023-04-24T11:47:49;0.68;;;0.40;;
37409;SDS011;23275;48.914;12.566;2023-04-24T11:50:16;2.70;;;0.55;;
37409;SDS011;23275;48.914;12.566;2023-04-24T11:52:43;1.40;;;0.40;;
37409;SDS011;23275;48.914;12.566;2023-04-24T11:57:42;1.58;;;0.50;;
37409;SDS011;23275;48.914;12.566;2023-04-24T12:00:14;1.20;;;0.65;;
37409;SDS011;23275;48.914;12.566;2023-04-24T12:02:41;1.33;;;0.70;;
37409;SDS011;23275;48.914;12.566;2023-04-24T12:05:07;2.28;;;0.60;;
37409;SDS011;23275;48.914;12.566;2023-04-24T12:07:39;1.77;;;0.70;;
37409;SDS011;23275;48.914;12.566;2023-04-24T12:10:08;0.95;;;0.60;;
37409;SDS011;23275;48.914;12.566;2023-04-24T12:12:34;1.35;;;0.70;;
37409;SDS011;23275;48.914;12.566;2023-04-24T12:15:00;1.25;;;0.50;;
37409;SDS011;23275;48.914;12.566;2023-04-24T12:17:28;1.38;;;0.50;;
37409;SDS011;23275;48.914;12.566;2023-04-24T12:22:42;2.17;;;0.85;;
37409;SDS011;23275;48.914;12.566;2023-04-24T12:25:11;2.42;;;0.90;;
37409;SDS011;23275;48.914;12.566;2023-04-24T12:27:37;1.05;;;0.73;;
37409;SDS011;23275;48.914;12.566;2023-04-24T12:30:09;2.75;;;0.80;;
37409;SDS011;23275;48.914;12.566;2023-04-24T12:32:40;1.95;;;0.80;;
37409;SDS011;23275;48.914;12.566;2023-04-24T12:35:12;2.00;;;1.10;;
37409;SDS011;23275;48.914;12.566;2023-04-24T12:37:38;2.33;;;0.60;;
37409;SDS011;23275;48.914;12.566;2023-04-24T12:40:09;2.58;;;1.00;;
37409;SDS011;23275;48.914;12.566;2023-04-24T12:42:35;1.65;;;1.00;;
37409;SDS011;23275;48.914;12.566;2023-04-24T12:45:07;2.45;;;0.90;;
37409;SDS011;23275;48.914;12.566;2023-04-24T12:47:33;2.22;;;0.88;;
37409;SDS011;23275;48.914;12.566;2023-04-24T12:50:00;1.45;;;0.80;;
37409;SDS011;23275;48.914;12.566;2023-04-24T12:52:27;3.83;;;0.80;;
37409;SDS011;23275;48.914;12.566;2023-04-24T12:54:54;3.03;;;0.80;;
37409;SDS011;23275;48.914;12.566;2023-04-24T12:57:22;2.67;;;0.60;;
37409;SDS011;23275;48.914;12.566;2023-04-24T12:59:49;3.33;;;0.50;;
37409;SDS011;23275;48.914;12.566;2023-04-24T13:02:14;0.88;;;0.55;;
37409;SDS011;23275;48.914;12.566;2023-04-24T13:04:44;2.40;;;0.73;;
37409;SDS011;23275;48.914;12.566;2023-04-24T13:07:11;1.25;;;0.63;;
37409;SDS011;23275;48.914;12.566;2023-04-24T13:09:37;3.15;;;0.70;;
37409;SDS011;23275;48.914;12.566;2023-04-24T13:12:03;1.55;;;0.60;;
37409;SDS011;23275;48.914;12.566;2023-04-24T13:14:30;2.13;;;0.60;;
37409;SDS011;23275;48.914;12.566;2023-04-24T13:16:56;1.80;;;0.65;;
37409;SDS011;23275;48.914;12.566;2023-04-24T13:19:23;3.88;;;0.70;;
37409;SDS011;23275;48.914;12.566;2023-04-24T13:21:51;2.42;;;0.80;;
37409;SDS011;23275;48.914;12.566;2023-04-24T13:24:17;1.60;;;0.60;;
37409;SDS011;23275;48.914;12.566;2023-04-24T13:26:42;1.75;;;0.70;;
37409;SDS011;23275;48.914;12.566;2023-04-24T13:29:08;3.95;;;0.80;;
37409;SDS011;23275;48.914;12.566;2023-04-24T13:31:34;1.73;;;0.70;;
37409;SDS011;23275;48.914;12.566;2023-04-24T13:34:00;1.77;;;0.68;;
37409;SDS011;23275;48.914;12.566;2023-04-24T13:36:27;1.33;;;0.60;;
37409;SDS011;23275;48.914;12.566;2023-04-24T13:38:53;1.50;;;0.70;;
37409;SDS011;23275;48.914;12.566;2023-04-24T13:41:18;1.80;;;0.80;;
37409;SDS011;23275;48.914;12.566;2023-04-24T13:43:44;1.77;;;0.75;;
37409;SDS011;23275;48.914;12.566;2023-04-24T13:46:10;1.27;;;0.45;;
37409;SDS011;23275;48.914;12.566;2023-04-24T13:48:35;3.22;;;0.60;;
37409;SDS011;23275;48.914;12.566;2023-04-24T13:51:01;3.03;;;0.93;;
37409;SDS011;23275;48.914;12.566;2023-04-24T13:53:27;3.05;;;0.85;;
37409;SDS011;23275;48.914;12.566;2023-04-24T13:55:52;3.03;;;0.85;;
37409;SDS011;23275;48.914;12.566;2023-04-24T13:58:18;2.25;;;0.57;;
37409;SDS011;23275;48.914;12.566;2023-04-24T14:00:44;1.77;;;0.80;;
37409;SDS011;23275;48.914;12.566;2023-04-24T14:03:09;2.28;;;0.70;;
37409;SDS011;23275;48.914;12.566;2023-04-24T14:05:35;2.17;;;0.57;;
37409;SDS011;23275;48.914;12.566;2023-04-24T14:08:01;1.70;;;0.63;;
37409;SDS011;23275;48.914;12.566;2023-04-24T14:10:26;0.93;;;0.50;;
37409;SDS011;23275;48.914;12.566;2023-04-24T14:12:53;1.60;;;0.50;;
37409;SDS011;23275;48.914;12.566;2023-04-24T14:15:18;1.80;;;0.60;;
37409;SDS011;23275;48.914;12.566;2023-04-24T14:17:44;0.80;;;0.50;;
37409;SDS011;23275;48.914;12.566;2023-04-24T14:20:10;2.97;;;0.73;;
37409;SDS011;23275;48.914;12.566;2023-04-24T14:22:37;1.55;;;0.52;;
37409;SDS011;23275;48.914;12.566;2023-04-24T14:25:02;2.35;;;0.60;;
37409;SDS011;23275;48.914;12.566;2023-04-24T14:27:29;3.28;;;0.60;;
37409;SDS011;23275;48.914;12.566;2023-04-24T14:29:55;1.55;;;0.60;;
37409;SDS011;23275;48.914;12.566;2023-04-24T14:32:20;0.55;;;0.30;;
37409;SDS011;23275;48.914;12.566;2023-04-24T14:34:46;1.65;;;0.60;;
37409;SDS011;23275;48.914;12.566;2023-04-24T14:37:12;2.58;;;0.60;;
37409;SDS011;23275;48.914;12.566;2023-04-24T14:39:37;1.67;;;0.80;;
37409;SDS011;23275;48.914;12.566;2023-04-24T14:42:03;0.98;;;0.50;;
37409;SDS011;23275;48.914;12.566;2023-04-24T14:44:28;3.28;;;0.50;;
37409;SDS011;23275;48.914;12.566;2023-04-24T14:46:54;1.10;;;0.47;;
37409;SDS011;23275;48.914;12.566;2023-04-24T14:49:20;1.33;;;0.60;;
37409;SDS011;23275;48.914;12.566;2023-04-24T14:51:45;2.00;;;0.50;;
37409;SDS011;23275;48.914;12.566;2023-04-24T14:54:11;1.33;;;0.70;;